Terminal Aerodrome Forecast
Issued by NWS

Home | Current Version | Previous Version | Text Only | Print | Product List | Glossary On
Versions: 1 2 3 4 5 6 7 8 9 10 11 12 13 14 15 16 17 18
902
FTUS43 KMPX 142342
TAFRWF
TAF
KRWF 142342Z 1500/1524 17012KT P6SM BKN018 OVC030
     FM150900 21006KT 6SM BR SCT006 OVC010
     FM151800 22007KT 6SM BR BKN015=

USA.gov is the U.S. government's official web portal to all federal, state and local government web resources and services.